Wesleyville, Canada
Current Conditions -  °F | °C
As of 2:12 AM on Sunday 26 Oct 2014 (Local Time) from CYQX Reporting Station
Drizzle Drizzle  
Wind Chill: -1°   Ceiling: 400
Heat Index:   Visibility: 3mi
Dew Point:   Wind: 16mph
Humidity: 100%   Direction: 50°NE
Pressure: 29.54"   Gusts: 25mph
Location:  49.15°N, 53.58°W
Report Text: CYQX 260412Z 05014G22KT 3SM -DZ BR BKN004 OVC011 04/04 A2954 RMK SF7SC1 SLP007
Loading
Personal Weather Stations






























Interactive Weather Map
Tropical Storm Tracking
New forecast layout! Learn more

10-Day Weather Forecast

Advertisements
Track Severe Weather on mobile